Time;durP1;ratioP1;P1;durP2;ratioP2;P2;SDS_P1;SDS_P2;PMS_P1;PMS_P2;Temp;Humidity;BMP_temperature;BMP_pressure;BME280_temperature;BME280_humidity;BME280_pressure;Samples;Min_cycle;Max_cycle;Signal;HPM_P1;HPM_P2
2022/01/12 00:00:34;;;;;;;14.85;8.90;;;0.00;2201.60;;;;;;4933049;29;20044;-80
2022/01/12 00:03:10;;;;;;;13.85;8.27;;;0.00;2201.60;;;;;;4932499;29;20168;-79
2022/01/12 00:05:38;;;;;;;13.35;8.43;;;12.90;2201.60;;;;;;4926952;29;20047;-80
2022/01/12 00:08:16;;;;;;;13.93;8.35;;;12.90;2201.60;;;;;;4940916;29;20011;-80
2022/01/12 00:10:45;;;;;;;13.85;7.50;;;13.00;2201.60;;;;;;4917770;29;20043;-80
2022/01/12 00:13:12;;;;;;;13.60;7.95;;;13.10;2201.60;;;;;;4930872;29;20043;-79
2022/01/12 00:15:38;;;;;;;12.07;7.28;;;13.10;2201.60;;;;;;4909984;29;20562;-79
2022/01/12 00:18:04;;;;;;;13.68;7.78;;;13.10;2201.60;;;;;;4916991;29;20070;-79
2022/01/12 00:20:30;;;;;;;12.50;8.55;;;13.10;2201.60;;;;;;4966573;29;20082;-79
2022/01/12 00:22:57;;;;;;;13.63;8.02;;;13.20;2201.60;;;;;;4946448;29;20043;-79
2022/01/12 00:25:28;;;;;;;13.68;7.45;;;13.20;2201.60;;;;;;4940427;29;20031;-79
2022/01/12 00:33:23;;;;;;;11.20;6.80;;;13.30;2201.60;;;;;;4958715;29;20050;-78
2022/01/12 00:35:51;;;;;;;11.10;6.80;;;13.30;2201.60;;;;;;4953090;29;20476;-78
2022/01/12 00:38:18;;;;;;;15.18;7.43;;;13.30;2201.60;;;;;;4955879;29;20035;-78
2022/01/12 00:40:52;;;;;;;13.07;6.97;;;13.40;2201.60;;;;;;4940734;29;20066;-78
2022/01/12 00:43:19;;;;;;;18.40;9.05;;;13.40;2201.60;;;;;;4946685;29;20039;-79
2022/01/12 00:45:46;;;;;;;12.38;8.05;;;13.50;2201.60;;;;;;4949201;29;20107;-79
2022/01/12 00:48:15;;;;;;;12.40;7.25;;;13.50;2201.60;;;;;;4927008;29;20034;-78
2022/01/12 00:50:42;;;;;;;11.00;6.65;;;13.50;2201.60;;;;;;4939264;29;20467;-78
2022/01/12 00:53:08;;;;;;;10.30;6.60;;;13.60;2201.60;;;;;;4955298;29;20019;-78
2022/01/12 00:55:35;;;;;;;12.30;7.35;;;13.60;2201.60;;;;;;4937226;29;20059;-80
2022/01/12 00:58:01;;;;;;;12.23;6.75;;;13.50;2201.60;;;;;;4925928;29;20031;-79
2022/01/12 01:00:28;;;;;;;11.43;6.57;;;13.60;2201.60;;;;;;4929554;29;20038;-78
2022/01/12 01:02:54;;;;;;;13.13;7.07;;;13.60;2201.60;;;;;;4939646;29;20023;-78
2022/01/12 01:05:22;;;;;;;14.55;9.43;;;13.60;2201.60;;;;;;4936195;29;20492;-78
2022/01/12 01:07:49;;;;;;;12.15;7.32;;;13.60;2201.60;;;;;;4940028;29;20058;-78
2022/01/12 01:10:26;;;;;;;12.30;6.72;;;13.60;2201.60;;;;;;4943133;29;20042;-78
2022/01/12 01:12:52;;;;;;;15.00;7.35;;;13.70;2201.60;;;;;;4947689;29;20032;-78
2022/01/12 01:15:27;;;;;;;11.95;6.97;;;13.70;2201.60;;;;;;4954743;29;20039;-78
2022/01/12 01:26:06;;;;;;;14.18;7.05;;;13.70;2201.60;;;;;;4944612;29;20510;-77
2022/01/12 01:28:31;;;;;;;14.35;9.02;;;13.70;2201.60;;;;;;4928939;29;20027;-78
2022/01/12 01:30:57;;;;;;;12.85;7.22;;;13.70;2201.60;;;;;;4955504;28;20498;-78
2022/01/12 01:33:26;;;;;;;11.65;7.70;;;13.70;2201.60;;;;;;4953718;29;20039;-78
2022/01/12 01:35:56;;;;;;;14.45;7.32;;;13.70;2201.60;;;;;;4948864;29;20488;-78
2022/01/12 01:38:22;;;;;;;14.18;8.93;;;13.70;2201.60;;;;;;4970630;28;20098;-78
2022/01/12 01:40:48;;;;;;;12.00;7.38;;;38.40;2201.60;;;;;;4938715;29;20491;-78
2022/01/12 01:54:13;;;;;;;14.98;8.95;;;38.40;2201.60;;;;;;4943177;29;20093;-78
2022/01/12 01:56:39;;;;;;;14.10;8.02;;;38.40;2201.60;;;;;;4931086;29;20036;-77
2022/01/12 01:59:05;;;;;;;14.32;8.20;;;38.40;2201.60;;;;;;4947498;29;20027;-78
2022/01/12 02:01:31;;;;;;;16.92;8.68;;;38.40;2201.60;;;;;;4929937;29;20039;-78
2022/01/12 02:04:01;;;;;;;12.73;8.45;;;13.70;2201.60;;;;;;4950218;29;20031;-78
2022/01/12 02:06:28;;;;;;;12.52;6.95;;;13.70;2201.60;;;;;;4939577;28;20026;-78
2022/01/12 02:08:54;;;;;;;14.45;8.77;;;38.40;2201.60;;;;;;4947313;28;20024;-78
2022/01/12 02:11:29;;;;;;;14.20;7.43;;;38.40;2201.60;;;;;;4949407;29;20484;-78
2022/01/12 02:13:57;;;;;;;9.20;6.63;;;38.50;2201.60;;;;;;4925193;29;20035;-79
2022/01/12 02:16:31;;;;;;;14.40;8.55;;;38.50;2201.60;;;;;;4955848;29;20027;-79
2022/01/12 02:40:31;;;;;;;14.93;7.63;;;38.70;2201.60;;;;;;4963072;29;20122;-79
2022/01/12 02:43:11;;;;;;;13.73;7.32;;;38.70;2201.60;;;;;;4966611;29;20043;-78
2022/01/12 02:53:46;;;;;;;13.15;7.60;;;38.80;2201.60;;;;;;4967564;29;20610;-79
2022/01/12 02:56:22;;;;;;;10.15;7.28;;;38.80;2201.60;;;;;;4964654;29;20059;-78
2022/01/12 02:58:48;;;;;;;;;;;38.80;2201.60;;;;;;4964224;29;20035;-78
2022/01/12 03:03:52;;;;;;;10.88;6.35;;;38.80;2201.60;;;;;;4964810;29;20043;-78
2022/01/12 03:06:22;;;;;;;13.05;7.15;;;38.80;2201.60;;;;;;4941816;28;20063;-78
2022/01/12 03:08:50;;;;;;;14.80;7.80;;;38.90;2201.60;;;;;;4976484;28;20030;-78
2022/01/12 03:11:17;;;;;;;13.15;6.75;;;38.90;2201.60;;;;;;4975993;28;20118;-78
2022/01/12 03:13:43;;;;;;;12.00;7.57;;;38.90;2201.60;;;;;;4958617;28;20027;-78
2022/01/12 03:16:22;;;;;;;12.43;7.53;;;38.90;2201.60;;;;;;4957812;28;20039;-77
2022/01/12 03:18:59;;;;;;;13.75;7.60;;;38.90;2201.60;;;;;;4938809;29;20031;-77
2022/01/12 03:21:33;;;;;;;13.20;7.57;;;39.00;2201.60;;;;;;4940146;29;20038;-78
2022/01/12 03:24:00;;;;;;;13.38;7.28;;;39.00;2201.60;;;;;;4942545;29;20031;-78
2022/01/12 03:26:29;;;;;;;12.57;8.02;;;39.10;2201.60;;;;;;4959493;29;20128;-78
2022/01/12 03:28:56;;;;;;;11.38;6.97;;;39.20;2201.60;;;;;;4948152;29;20034;-79
2022/01/12 03:31:25;;;;;;;13.20;8.05;;;39.30;2201.60;;;;;;4932102;29;20499;-79
2022/01/12 03:33:59;;;;;;;13.15;7.65;;;39.20;2201.60;;;;;;4930269;29;20055;-79
2022/01/12 03:36:28;;;;;;;13.18;8.43;;;39.20;2201.60;;;;;;4933954;28;20042;-79
2022/01/12 03:39:04;;;;;;;13.23;7.45;;;39.20;2201.60;;;;;;4967233;28;20474;-79
2022/01/12 03:41:34;;;;;;;13.85;7.55;;;39.20;2201.60;;;;;;4982563;28;20058;-79
2022/01/12 03:44:00;;;;;;;17.75;7.10;;;39.30;2201.60;;;;;;4970037;28;20090;-79
2022/01/12 03:46:39;;;;;;;12.57;7.60;;;39.30;2201.60;;;;;;4967283;28;20027;-79
2022/01/12 03:49:05;;;;;;;11.70;6.97;;;39.30;2201.60;;;;;;4951539;29;20034;-78
2022/01/12 03:51:32;;;;;;;12.07;6.60;;;39.30;2201.60;;;;;;4939482;29;20035;-78
2022/01/12 03:53:57;;;;;;;11.90;8.02;;;64.00;2201.60;;;;;;4936862;29;20055;-78
2022/01/12 03:56:23;;;;;;;11.82;6.28;;;64.00;2201.60;;;;;;4938228;29;20473;-78
2022/01/12 03:58:49;;;;;;;10.63;6.82;;;64.10;2201.60;;;;;;4937717;29;20032;-78
2022/01/12 04:01:15;;;;;;;11.80;6.97;;;64.10;2201.60;;;;;;4935628;29;20415;-77
2022/01/12 04:03:45;;;;;;;12.10;6.97;;;64.10;2201.60;;;;;;4936748;29;20054;-77
2022/01/12 04:08:55;;;;;;;10.88;6.57;;;64.10;2201.60;;;;;;4976680;28;20049;-77
2022/01/12 04:11:20;;;;;;;13.43;7.22;;;64.20;2201.60;;;;;;4975105;28;20474;-78
2022/01/12 04:13:48;;;;;;;11.57;6.45;;;64.20;2201.60;;;;;;4958557;28;20040;-78
2022/01/12 04:16:15;;;;;;;11.02;6.35;;;64.20;2201.60;;;;;;4958643;28;20026;-77
2022/01/12 04:18:41;;;;;;;11.95;7.10;;;64.30;2201.60;;;;;;4958490;28;20031;-77
2022/01/12 04:21:08;;;;;;;9.48;4.97;;;64.30;2201.60;;;;;;4958288;28;20038;-77
2022/01/12 04:23:36;;;;;;;10.52;6.18;;;64.40;2201.60;;;;;;4958463;28;20401;-77
2022/01/12 04:26:09;;;;;;;13.70;7.13;;;64.40;2201.60;;;;;;4958260;28;20046;-77
2022/01/12 04:28:36;;;;;;;13.00;6.35;;;64.40;2201.60;;;;;;4974375;28;20029;-77
2022/01/12 04:31:03;;;;;;;13.32;6.15;;;64.50;2201.60;;;;;;4949774;29;20545;-78
2022/01/12 04:33:30;;;;;;;9.50;5.60;;;64.60;2201.60;;;;;;4954781;29;20027;-78
2022/01/12 04:35:56;;;;;;;11.93;6.07;;;64.60;2201.60;;;;;;4956642;29;20475;-78
2022/01/12 04:38:29;;;;;;;9.00;5.32;;;64.70;2201.60;;;;;;4973961;28;20027;-77
2022/01/12 04:40:56;;;;;;;8.80;5.28;;;64.80;2201.60;;;;;;4975710;28;20478;-77
2022/01/12 04:43:24;;;;;;;11.45;5.82;;;64.80;2201.60;;;;;;4958080;28;20033;-78
2022/01/12 04:50:45;;;;;;;11.70;5.35;;;64.80;2201.60;;;;;;4956905;28;20098;-77
2022/01/12 04:53:12;;;;;;;8.90;5.95;;;64.90;2201.60;;;;;;4956664;28;20526;-77
2022/01/12 04:55:38;;;;;;;10.30;6.95;;;64.90;2201.60;;;;;;4956359;28;20504;-78
2022/01/12 04:58:15;;;;;;;9.93;5.07;;;89.60;2201.60;;;;;;4950417;29;20115;-78
2022/01/12 05:00:43;;;;;;;11.45;6.03;;;89.70;2176.00;;;;;;4952648;29;20390;-77
2022/01/12 05:13:55;;;;;;;9.18;5.63;;;89.60;2201.60;;;;;;4960954;29;20033;-79
2022/01/12 05:16:26;;;;;;;9.20;5.53;;;89.60;2201.60;;;;;;4963609;29;20074;-78
2022/01/12 05:19:00;;;;;;;13.45;5.90;;;89.60;2201.60;;;;;;4953411;29;20035;-79
2022/01/12 05:22:06;;;;;;;8.30;5.40;;;89.80;2176.00;;;;;;4956852;29;20108;-79
2022/01/12 05:24:57;;;;;;;11.38;5.85;;;64.90;2201.60;;;;;;4881004;29;20021;-79
2022/01/12 05:28:09;;;;;;;11.18;5.32;;;89.60;2201.60;;;;;;4880246;29;20038;-79
2022/01/12 05:30:45;;;;;;;10.73;5.07;;;89.60;2201.60;;;;;;4879097;29;20038;-80
2022/01/12 05:33:34;;;;;;;11.68;6.18;;;89.70;2176.00;;;;;;4877532;29;20052;-79
2022/01/12 05:36:16;;;;;;;11.90;5.80;;;89.60;2201.60;;;;;;4877932;29;20033;-81
2022/01/12 05:38:49;;;;;;;10.20;6.20;;;89.60;2201.60;;;;;;4877228;29;20045;-79
2022/01/12 05:41:16;;;;;;;10.68;6.15;;;89.60;2201.60;;;;;;4877617;29;20041;-80
2022/01/12 05:47:00;;;;;;;14.10;6.55;;;89.60;2201.60;;;;;;4868414;29;20163;-80
2022/01/12 05:49:54;;;;;;;15.80;8.27;;;89.60;2201.60;;;;;;4878274;29;20025;-80
2022/01/12 05:52:49;;;;;;;16.02;7.38;;;89.60;2201.60;;;;;;4868801;29;20026;-80
2022/01/12 06:00:27;;;;;;;17.77;7.90;;;89.60;2201.60;;;;;;5348198;23;20057;-80
2022/01/12 06:03:02;;;;;;;16.60;7.32;;;89.60;2201.60;;;;;;4973847;28;20057;-79
2022/01/12 06:05:44;;;;;;;13.32;6.72;;;89.60;2201.60;;;;;;4992885;28;20027;-79
2022/01/12 06:08:14;;;;;;;10.55;6.70;;;89.60;2201.60;;;;;;4989259;28;20031;-79
2022/01/12 06:10:41;;;;;;;11.32;5.85;;;89.70;2176.00;;;;;;4963316;28;20078;-79
2022/01/12 06:13:07;;;;;;;12.13;7.03;;;89.70;2176.00;;;;;;4963909;28;20031;-78
2022/01/12 06:15:33;;;;;;;12.68;7.75;;;89.70;2176.00;;;;;;4965277;28;20035;-79
2022/01/12 06:17:59;;;;;;;14.07;7.75;;;89.60;2201.60;;;;;;4964416;28;20027;-79
2022/01/12 06:20:25;;;;;;;14.98;7.70;;;89.70;2176.00;;;;;;4965202;28;20390;-79
2022/01/12 06:22:52;;;;;;;13.25;6.05;;;89.80;2176.00;;;;;;4982725;28;20023;-79
2022/01/12 06:25:23;;;;;;;13.15;6.82;;;89.80;2176.00;;;;;;4968921;28;20034;-80
2022/01/12 06:33:24;;;;;;;11.48;6.60;;;89.90;2176.00;;;;;;4993734;28;20054;-79
2022/01/12 06:35:54;;;;;;;16.27;7.82;;;89.90;2176.00;;;;;;4961912;28;20035;-79
2022/01/12 06:38:47;;;;;;;16.05;9.85;;;89.90;2176.00;;;;;;4979408;28;20069;-80
2022/01/12 06:41:23;;;;;;;14.82;8.07;;;90.00;2176.00;;;;;;4942297;28;20050;-79
2022/01/12 06:44:01;;;;;;;13.38;7.40;;;90.00;2176.00;;;;;;4956902;29;20028;-79
2022/01/12 06:46:42;;;;;;;14.70;8.95;;;90.00;2176.00;;;;;;4955722;29;20062;-80
2022/01/12 06:49:11;;;;;;;16.08;8.45;;;90.00;2176.00;;;;;;4954285;29;20042;-79
2022/01/12 06:51:44;;;;;;;16.33;8.57;;;90.00;2176.00;;;;;;4910871;29;20075;-79
2022/01/12 06:54:49;;;;;;;19.38;8.98;;;90.10;2176.00;;;;;;4894694;29;20092;-79
2022/01/12 06:57:17;;;;;;;14.27;8.05;;;90.00;2176.00;;;;;;4930289;29;20103;-79
2022/01/12 06:59:45;;;;;;;16.30;8.63;;;90.10;2176.00;;;;;;4930128;29;20052;-79
2022/01/12 07:11:19;;;;;;;19.77;11.18;;;90.10;2176.00;;;;;;5141094;23;20411;-79
2022/01/12 07:13:45;;;;;;;24.83;13.55;;;90.00;2176.00;;;;;;4970308;28;20089;-79
2022/01/12 07:16:11;;;;;;;26.55;13.27;;;90.10;2176.00;;;;;;4974225;28;20019;-79
2022/01/12 07:18:38;;;;;;;32.35;14.27;;;90.10;2176.00;;;;;;4967876;29;20011;-79
2022/01/12 07:21:03;;;;;;;23.80;13.23;;;90.10;2176.00;;;;;;4944665;29;20032;-79
2022/01/12 07:23:29;;;;;;;25.15;13.95;;;90.00;2176.00;;;;;;4945054;29;20059;-79
2022/01/12 07:25:56;;;;;;;18.27;10.75;;;90.00;2176.00;;;;;;4947091;29;20046;-79
2022/01/12 07:28:22;;;;;;;22.00;12.35;;;90.00;2176.00;;;;;;4963608;29;20026;-78
2022/01/12 07:30:53;;;;;;;23.98;11.57;;;90.00;2176.00;;;;;;4954150;29;20031;-79
2022/01/12 07:33:20;;;;;;;21.83;11.48;;;90.00;2176.00;;;;;;4953326;29;20094;-79
2022/01/12 07:35:46;;;;;;;29.95;15.35;;;90.00;2176.00;;;;;;4951391;29;20038;-79
2022/01/12 07:38:14;;;;;;;30.85;16.05;;;90.00;2176.00;;;;;;4976294;28;20046;-79
2022/01/12 07:40:43;;;;;;;26.05;13.82;;;89.90;2176.00;;;;;;4946371;28;20074;-80
2022/01/12 07:43:12;;;;;;;25.90;15.52;;;89.90;2176.00;;;;;;4957989;29;20034;-79
2022/01/12 07:45:43;;;;;;;32.33;13.65;;;89.90;2176.00;;;;;;4958236;29;20085;-79
2022/01/12 07:48:13;;;;;;;23.17;12.38;;;89.90;2176.00;;;;;;4993361;28;20064;-79
2022/01/12 07:50:44;;;;;;;31.08;14.98;;;90.00;2176.00;;;;;;4974622;28;20031;-79
2022/01/12 07:53:14;;;;;;;28.30;15.38;;;90.00;2176.00;;;;;;4963631;28;20446;-79
2022/01/12 07:55:59;;;;;;;30.10;15.02;;;89.90;2176.00;;;;;;4972703;29;20098;-79
2022/01/12 07:58:26;;;;;;;28.70;15.90;;;89.90;2176.00;;;;;;4993119;28;20046;-79
2022/01/12 08:05:06;;;;;;;28.95;14.73;;;89.80;2176.00;;;;;;4911813;29;20050;-80
2022/01/12 08:07:52;;;;;;;35.33;16.17;;;89.70;2176.00;;;;;;4903380;29;20020;-80
2022/01/12 08:10:35;;;;;;;46.72;17.00;;;89.70;2176.00;;;;;;4908250;29;20036;-80
2022/01/12 08:13:26;;;;;;;44.22;19.33;;;89.70;2176.00;;;;;;4917706;29;20052;-80
2022/01/12 08:16:18;;;;;;;27.92;17.58;;;89.60;2201.60;;;;;;4902329;29;20072;-79
2022/01/12 08:18:44;;;;;;;31.70;16.00;;;89.60;2201.60;;;;;;4902780;29;20056;-79
2022/01/12 08:21:09;;;;;;;27.58;15.18;;;64.80;2201.60;;;;;;4895023;29;20036;-79
2022/01/12 08:23:35;;;;;;;35.38;18.27;;;64.70;2201.60;;;;;;4896195;29;20040;-79
2022/01/12 08:26:01;;;;;;;28.40;15.45;;;64.60;2201.60;;;;;;4890261;29;20081;-79
2022/01/12 08:28:27;;;;;;;28.20;14.43;;;64.60;2201.60;;;;;;4905815;29;20033;-80
2022/01/12 08:30:52;;;;;;;34.35;15.73;;;64.50;2201.60;;;;;;4891720;29;20567;-79
2022/01/12 08:33:19;;;;;;;27.67;15.77;;;64.60;2201.60;;;;;;4893213;29;20037;-79
2022/01/12 08:35:44;;;;;;;30.10;16.83;;;64.50;2201.60;;;;;;4940467;29;20031;-79
2022/01/12 08:38:11;;;;;;;31.63;16.83;;;64.50;2201.60;;;;;;4939547;29;20027;-80
2022/01/12 08:40:42;;;;;;;25.23;13.93;;;64.30;2201.60;;;;;;4955185;29;20031;-79
2022/01/12 08:43:08;;;;;;;28.95;15.27;;;64.30;2201.60;;;;;;4964622;29;20601;-79
2022/01/12 08:45:34;;;;;;;26.08;15.80;;;64.30;2201.60;;;;;;4938430;29;20055;-79
2022/01/12 08:48:10;;;;;;;31.30;16.27;;;64.20;2201.60;;;;;;4935494;29;20007;-80
2022/01/12 08:50:36;;;;;;;27.85;15.00;;;64.10;2201.60;;;;;;4947679;29;20067;-79
2022/01/12 08:53:07;;;;;;;28.55;16.33;;;64.10;2201.60;;;;;;4953543;28;20027;-80
2022/01/12 08:55:33;;;;;;;29.90;16.58;;;64.00;2201.60;;;;;;4940576;29;20499;-79
2022/01/12 08:57:59;;;;;;;26.48;15.00;;;64.00;2201.60;;;;;;4940119;29;20031;-79
2022/01/12 09:00:26;;;;;;;31.75;17.75;;;64.00;2201.60;;;;;;4937922;29;20035;-78
2022/01/12 09:02:51;;;;;;;29.15;14.88;;;64.00;2201.60;;;;;;4941533;29;20488;-79
2022/01/12 09:05:17;;;;;;;31.10;17.67;;;39.30;2201.60;;;;;;4934723;29;20039;-79
2022/01/12 09:07:44;;;;;;;34.85;16.45;;;39.30;2201.60;;;;;;4936432;29;20054;-79
2022/01/12 09:10:11;;;;;;;22.60;14.98;;;39.20;2201.60;;;;;;4926722;29;20483;-79
2022/01/12 09:12:36;;;;;;;26.55;15.60;;;39.10;2201.60;;;;;;4944517;29;20071;-79
2022/01/12 09:15:08;;;;;;;27.98;15.50;;;39.10;2201.60;;;;;;4972141;28;20573;-79
2022/01/12 09:17:36;;;;;;;30.20;15.75;;;38.90;2201.60;;;;;;4963898;28;20066;-79
2022/01/12 09:21:01;;;;;;;33.70;17.02;;;38.80;2201.60;;;;;;4967986;28;20043;-81
2022/01/12 09:26:34;;;;;;;32.25;17.83;;;38.70;2201.60;;;;;;4979752;28;20023;-80
2022/01/12 09:29:57;;;;;;;31.23;16.67;;;38.70;2201.60;;;;;;4996851;28;20106;-80
2022/01/12 09:32:49;;;;;;;34.25;17.25;;;38.60;2201.60;;;;;;4935578;29;20032;-81
2022/01/12 09:35:36;;;;;;;33.50;15.73;;;38.70;2201.60;;;;;;4934877;29;20588;-79
2022/01/12 09:38:03;;;;;;;30.83;16.05;;;38.60;2201.60;;;;;;4913109;29;20048;-79
2022/01/12 09:40:59;;;;;;;34.78;18.15;;;38.60;2201.60;;;;;;4900172;29;20144;-79
2022/01/12 09:43:32;;;;;;;36.80;17.52;;;38.40;2201.60;;;;;;4932959;29;20032;-79
2022/01/12 09:45:59;;;;;;;33.35;16.20;;;38.40;2201.60;;;;;;4934343;29;20020;-80
2022/01/12 09:48:34;;;;;;;34.28;18.33;;;13.60;2201.60;;;;;;4920650;29;20040;-80
2022/01/12 09:51:04;;;;;;;32.10;17.17;;;13.60;2201.60;;;;;;4925324;29;20048;-80
2022/01/12 09:53:31;;;;;;;28.00;16.35;;;13.60;2201.60;;;;;;4908765;29;20044;-79
2022/01/12 09:56:02;;;;;;;29.88;17.98;;;13.50;2201.60;;;;;;4938917;29;20034;-80
2022/01/12 09:58:34;;;;;;;29.90;16.58;;;13.50;2201.60;;;;;;4909723;29;20055;-79
2022/01/12 10:01:03;;;;;;;25.77;15.73;;;13.40;2201.60;;;;;;4906119;29;20035;-78
2022/01/12 10:03:28;;;;;;;31.58;16.65;;;13.40;2201.60;;;;;;4939278;28;20035;-79
2022/01/12 10:05:56;;;;;;;31.65;16.25;;;13.40;2201.60;;;;;;4950695;28;20020;-79
2022/01/12 10:08:22;;;;;;;28.05;16.00;;;13.30;2201.60;;;;;;4955458;28;20023;-78
2022/01/12 10:11:02;;;;;;;32.95;18.08;;;13.30;2201.60;;;;;;4953388;28;20041;-78
2022/01/12 10:13:28;;;;;;;32.45;17.73;;;13.20;2201.60;;;;;;4947139;29;20035;-79
2022/01/12 10:15:54;;;;;;;34.80;17.45;;;13.20;2201.60;;;;;;4936432;29;20058;-79
2022/01/12 10:18:22;;;;;;;41.08;20.77;;;13.20;2201.60;;;;;;4954762;29;20027;-80
2022/01/12 10:20:49;;;;;;;32.55;17.83;;;13.10;2201.60;;;;;;4930130;29;20027;-79
2022/01/12 10:23:16;;;;;;;38.55;19.48;;;13.10;2201.60;;;;;;4949662;29;20027;-80
2022/01/12 10:25:47;;;;;;;39.13;20.40;;;13.10;2201.60;;;;;;4952328;29;20531;-80
2022/01/12 10:28:18;;;;;;;37.42;19.75;;;13.00;2201.60;;;;;;4947024;29;20084;-79
2022/01/12 10:30:57;;;;;;;29.95;16.27;;;13.00;2201.60;;;;;;4935445;29;20027;-79
2022/01/12 12:24:24;;;;;;;34.78;17.92;;;25.90;2201.60;;;;;;1868366;28;20041;-72
2022/01/12 12:26:52;;;;;;;32.83;17.45;;;26.00;2201.60;;;;;;4981487;28;20046;-73
2022/01/12 12:29:28;;;;;;;39.58;19.63;;;26.00;2201.60;;;;;;4976950;28;20031;-73
2022/01/12 12:31:56;;;;;;;41.35;21.63;;;25.80;2201.60;;;;;;4982293;28;20042;-74
2022/01/12 12:34:25;;;;;;;33.50;19.70;;;26.00;2201.60;;;;;;4994888;28;20068;-73
2022/01/12 12:37:08;;;;;;;40.22;19.65;;;26.00;2201.60;;;;;;4992409;28;20035;-74
2022/01/12 12:39:37;;;;;;;31.55;17.50;;;26.10;2201.60;;;;;;4991003;28;20035;-73
2022/01/12 12:42:05;;;;;;;40.53;20.27;;;26.00;2201.60;;;;;;4992140;28;20805;-74
2022/01/12 12:44:33;;;;;;;40.35;19.05;;;26.00;2201.60;;;;;;4992200;28;20030;-75
2022/01/12 12:47:19;;;;;;;36.85;19.63;;;25.80;2201.60;;;;;;4981592;28;20030;-74
2022/01/12 12:49:54;;;;;;;43.92;21.80;;;25.80;2201.60;;;;;;4973350;28;20069;-75
2022/01/12 12:52:34;;;;;;;41.75;18.73;;;25.80;2201.60;;;;;;4966136;28;20046;-74
2022/01/12 12:55:04;;;;;;;40.72;20.35;;;25.80;2201.60;;;;;;4982035;28;20082;-74
2022/01/12 12:57:30;;;;;;;52.13;21.88;;;25.80;2201.60;;;;;;4991257;28;20057;-75
2022/01/12 13:00:13;;;;;;;39.38;20.10;;;25.90;2201.60;;;;;;4969419;28;20045;-75
2022/01/12 13:02:41;;;;;;;40.03;22.02;;;25.80;2201.60;;;;;;4976576;28;20047;-74
2022/01/12 13:05:10;;;;;;;36.85;19.17;;;25.80;2201.60;;;;;;4991135;28;20074;-74
2022/01/12 13:07:37;;;;;;;36.60;19.55;;;25.70;2201.60;;;;;;4995751;28;20117;-75
2022/01/12 13:10:05;;;;;;;34.75;20.88;;;25.70;2201.60;;;;;;4980786;28;20030;-74
2022/01/12 13:12:36;;;;;;;43.90;21.65;;;25.80;2201.60;;;;;;4985398;28;20192;-74
2022/01/12 13:15:02;;;;;;;41.53;17.80;;;25.80;2201.60;;;;;;4981144;28;20310;-75
2022/01/12 13:17:28;;;;;;;39.05;21.02;;;25.70;2201.60;;;;;;4992457;28;20042;-75
2022/01/12 13:22:39;;;;;;;38.83;21.10;;;25.70;2201.60;;;;;;4992034;28;20046;-74
2022/01/12 13:25:10;;;;;;;35.80;20.90;;;25.70;2201.60;;;;;;4980980;28;20157;-77
2022/01/12 13:27:38;;;;;;;35.75;18.92;;;25.70;2201.60;;;;;;4989806;28;20070;-75
2022/01/12 13:30:07;;;;;;;37.47;20.52;;;25.70;2201.60;;;;;;4991878;28;20061;-74
2022/01/12 13:32:33;;;;;;;41.45;21.48;;;25.60;2201.60;;;;;;4976565;28;20057;-75
2022/01/12 13:35:02;;;;;;;37.90;21.83;;;25.60;2201.60;;;;;;4991772;28;20034;-75
2022/01/12 13:37:28;;;;;;;31.50;19.27;;;0.90;2201.60;;;;;;4984853;28;20230;-75
2022/01/12 13:40:06;;;;;;;39.78;19.13;;;0.90;2201.60;;;;;;4981441;28;20038;-76
2022/01/12 13:42:31;;;;;;;41.47;23.42;;;0.90;2201.60;;;;;;4990192;28;20043;-75
2022/01/12 13:45:08;;;;;;;41.67;24.23;;;0.90;2201.60;;;;;;5005799;28;20042;-75
2022/01/12 13:47:35;;;;;;;32.65;18.77;;;0.90;2201.60;;;;;;4989688;28;20080;-75
2022/01/12 13:50:04;;;;;;;35.20;20.05;;;0.80;2201.60;;;;;;4982295;28;20031;-75
2022/01/12 13:52:30;;;;;;;44.05;22.00;;;0.70;2201.60;;;;;;4990778;28;20105;-75
2022/01/12 13:55:09;;;;;;;40.83;20.35;;;0.70;2201.60;;;;;;4977030;28;20042;-76
2022/01/12 13:57:35;;;;;;;40.00;21.17;;;0.60;2201.60;;;;;;4979499;28;20095;-77
2022/01/12 14:00:01;;;;;;;39.65;21.63;;;0.50;2201.60;;;;;;4978854;28;21686;-76
2022/01/12 14:02:29;;;;;;;36.42;20.88;;;0.50;2201.60;;;;;;4976028;28;20042;-76
2022/01/12 14:05:07;;;;;;;39.65;21.63;;;0.40;2201.60;;;;;;4987765;28;20034;-76
2022/01/12 14:07:40;;;;;;;43.15;22.02;;;0.40;2201.60;;;;;;4969226;28;20042;-76
2022/01/12 14:24:23;;;;;;;40.97;20.95;;;0.20;2201.60;;;;;;5004820;28;20037;-75
2022/01/12 14:26:49;;;;;;;53.38;23.80;;;0.20;2201.60;;;;;;4989706;28;20041;-75
2022/01/12 14:29:15;;;;;;;46.60;24.52;;;0.10;2201.60;;;;;;4995790;28;20026;-76
2022/01/12 14:31:41;;;;;;;42.80;23.58;;;0.10;2201.60;;;;;;4994134;28;20038;-76
2022/01/12 14:34:07;;;;;;;45.80;25.20;;;0.00;2201.60;;;;;;4977757;28;20046;-76
2022/01/12 14:36:33;;;;;;;44.53;24.15;;;0.00;2201.60;;;;;;4995512;28;20039;-76
2022/01/12 14:38:59;;;;;;;55.40;26.48;;;0.00;2201.60;;;;;;4995455;28;20101;-75
2022/01/12 14:41:26;;;;;;;54.88;25.73;;;12.90;2201.60;;;;;;4977474;28;20093;-77
2022/01/12 14:43:52;;;;;;;42.60;23.80;;;0.00;2201.60;;;;;;4974353;28;20038;-76
2022/01/12 14:46:19;;;;;;;41.17;22.25;;;12.90;2201.60;;;;;;4976875;28;20038;-76
2022/01/12 14:48:45;;;;;;;46.40;24.17;;;13.00;2201.60;;;;;;4976680;28;20081;-77
2022/01/12 14:51:10;;;;;;;44.17;24.20;;;13.00;2201.60;;;;;;4974174;28;20770;-76
2022/01/12 14:53:36;;;;;;;40.00;22.33;;;13.00;2201.60;;;;;;4976331;28;20049;-77
2022/01/12 14:56:04;;;;;;;45.78;23.50;;;13.10;2201.60;;;;;;4990475;28;20075;-76
2022/01/12 14:58:32;;;;;;;56.30;25.70;;;13.00;2201.60;;;;;;5013524;28;20415;-76
2022/01/12 15:00:58;;;;;;;46.83;27.63;;;13.10;2201.60;;;;;;4998321;28;20041;-76
2022/01/12 15:03:28;;;;;;;57.90;29.20;;;13.20;2201.60;;;;;;4996658;28;20487;-76
2022/01/12 15:05:54;;;;;;;58.42;30.15;;;13.20;2201.60;;;;;;5011264;28;20061;-76
2022/01/12 15:08:22;;;;;;;59.08;28.20;;;13.20;2201.60;;;;;;5014628;28;20040;-77
2022/01/12 15:10:49;;;;;;;52.90;26.23;;;13.20;2201.60;;;;;;4996033;28;20081;-77
2022/01/12 15:13:20;;;;;;;54.67;29.10;;;13.30;2201.60;;;;;;5014336;28;20561;-79
2022/01/12 15:15:51;;;;;;;52.92;26.52;;;13.30;2201.60;;;;;;4996260;28;20046;-75
2022/01/12 15:18:18;;;;;;;47.72;27.77;;;13.30;2201.60;;;;;;4996377;28;20113;-76
2022/01/12 15:20:44;;;;;;;45.83;23.25;;;13.30;2201.60;;;;;;5002095;28;20030;-76
2022/01/12 15:23:10;;;;;;;52.38;25.58;;;13.40;2201.60;;;;;;4996117;28;20034;-78
2022/01/12 15:25:36;;;;;;;52.97;26.48;;;13.40;2201.60;;;;;;4996495;28;20080;-77
2022/01/12 15:28:06;;;;;;;57.05;28.38;;;13.50;2201.60;;;;;;4996459;28;20033;-79
2022/01/12 15:30:33;;;;;;;50.30;29.30;;;13.50;2201.60;;;;;;5013809;28;20038;-79
2022/01/12 15:33:15;;;;;;;47.33;25.20;;;13.50;2201.60;;;;;;5013503;28;20030;-77
2022/01/12 15:35:41;;;;;;;55.35;30.17;;;13.50;2201.60;;;;;;5004141;28;20034;-77
2022/01/12 15:38:09;;;;;;;61.67;30.85;;;13.60;2201.60;;;;;;4995418;28;20048;-77
2022/01/12 15:40:36;;;;;;;56.22;29.20;;;13.60;2201.60;;;;;;5013624;28;20041;-78
2022/01/12 15:43:03;;;;;;;51.28;27.30;;;13.60;2201.60;;;;;;4988666;28;20030;-76
2022/01/12 15:45:28;;;;;;;54.33;27.63;;;13.60;2201.60;;;;;;5013543;28;20030;-76
2022/01/12 15:47:54;;;;;;;54.22;28.45;;;13.60;2201.60;;;;;;4991320;28;20057;-76
2022/01/12 15:50:20;;;;;;;49.80;25.77;;;13.60;2201.60;;;;;;4996114;28;20044;-76
2022/01/12 15:52:46;;;;;;;47.83;25.08;;;13.60;2201.60;;;;;;4996168;28;20046;-77
2022/01/12 15:55:12;;;;;;;67.10;31.67;;;13.70;2201.60;;;;;;5013572;28;20053;-76
2022/01/12 15:57:38;;;;;;;60.05;29.58;;;13.70;2201.60;;;;;;5013536;28;20063;-76
2022/01/12 16:00:08;;;;;;;66.07;34.90;;;13.70;2201.60;;;;;;5013989;28;20034;-76
2022/01/12 16:02:34;;;;;;;56.30;31.40;;;38.40;2201.60;;;;;;4995686;28;20034;-75
2022/01/12 16:04:59;;;;;;;65.93;32.42;;;38.40;2201.60;;;;;;5013418;28;20041;-75
2022/01/12 16:07:25;;;;;;;68.07;31.67;;;38.40;2201.60;;;;;;4995815;28;20475;-74
2022/01/12 16:09:51;;;;;;;62.17;32.03;;;38.40;2201.60;;;;;;5013791;28;20037;-74
2022/01/12 16:12:19;;;;;;;59.42;29.98;;;38.50;2201.60;;;;;;4995784;28;20037;-74
2022/01/12 16:14:46;;;;;;;62.30;29.98;;;38.50;2201.60;;;;;;5013815;28;20037;-74
2022/01/12 16:17:17;;;;;;;59.67;29.92;;;38.50;2201.60;;;;;;4987862;28;20037;-75
2022/01/12 16:19:46;;;;;;;55.38;28.75;;;38.50;2201.60;;;;;;4995523;28;20037;-74
2022/01/12 16:22:12;;;;;;;55.15;31.13;;;38.50;2201.60;;;;;;5001283;28;20065;-74